createdAt,value
2023-03-29T00:00:19.484Z,30.033
2023-03-29T00:05:16.387Z,30.036
2023-03-29T00:10:16.626Z,30.037
2023-03-29T00:15:19.494Z,30.038
2023-03-29T00:20:19.545Z,30.038
2023-03-29T00:25:16.612Z,30.040
2023-03-29T00:30:16.488Z,30.042
2023-03-29T00:35:19.523Z,30.040
2023-03-29T00:40:19.505Z,30.042
2023-03-29T00:45:19.525Z,30.045
2023-03-29T00:50:19.673Z,30.043
2023-03-29T00:55:19.492Z,30.046
2023-03-29T01:00:16.324Z,30.048
2023-03-29T01:05:19.528Z,30.049
2023-03-29T01:10:19.525Z,30.048
2023-03-29T01:15:16.547Z,30.051
2023-03-29T01:20:19.573Z,30.051
2023-03-29T01:25:19.481Z,30.051
2023-03-29T01:30:19.627Z,30.053
2023-03-29T01:35:19.550Z,30.055
2023-03-29T01:40:19.478Z,30.058
2023-03-29T01:45:16.634Z,30.057
2023-03-29T01:50:19.508Z,30.058
2023-03-29T01:55:16.567Z,30.060
2023-03-29T02:00:19.587Z,30.058
2023-03-29T02:05:19.501Z,30.060
2023-03-29T02:10:19.533Z,30.061
2023-03-29T02:15:16.579Z,30.065
2023-03-29T02:20:19.583Z,30.066
2023-03-29T02:25:16.593Z,30.066
2023-03-29T02:30:19.595Z,30.069
2023-03-29T02:35:16.617Z,30.068
2023-03-29T02:40:19.546Z,30.070
2023-03-29T02:45:16.498Z,30.071
2023-03-29T02:50:16.585Z,30.072
2023-03-29T02:55:19.594Z,30.071
2023-03-29T03:00:16.678Z,30.072
2023-03-29T03:05:19.619Z,30.071
2023-03-29T03:10:16.610Z,30.073
2023-03-29T03:15:19.609Z,30.073
2023-03-29T03:20:19.600Z,30.073
2023-03-29T03:25:16.402Z,30.074
2023-03-29T03:30:19.617Z,30.075
2023-03-29T03:35:19.627Z,30.075
2023-03-29T03:40:16.651Z,30.076
2023-03-29T03:45:19.654Z,30.078
2023-03-29T03:50:16.652Z,30.076
2023-03-29T03:55:19.646Z,30.079
2023-03-29T04:00:18.893Z,30.080
2023-03-29T04:05:15.872Z,30.080
2023-03-29T04:10:18.839Z,30.079
2023-03-29T04:15:15.788Z,30.080
2023-03-29T04:20:15.905Z,30.079
2023-03-29T04:25:18.897Z,30.078
2023-03-29T04:30:15.908Z,30.079
2023-03-29T04:35:15.937Z,30.078
2023-03-29T04:40:18.907Z,30.077
2023-03-29T04:45:18.936Z,30.078
2023-03-29T04:50:18.873Z,30.077
2023-03-29T04:55:15.784Z,30.078
2023-03-29T05:00:15.977Z,30.077
2023-03-29T05:05:18.872Z,30.075
2023-03-29T05:10:18.854Z,30.074
2023-03-29T05:15:18.933Z,30.072
2023-03-29T05:20:18.860Z,30.069
2023-03-29T05:25:18.856Z,30.068
2023-03-29T05:30:15.940Z,30.067
2023-03-29T05:35:15.765Z,30.064
2023-03-29T05:40:18.936Z,30.062
2023-03-29T05:45:15.936Z,30.063
2023-03-29T05:50:15.932Z,30.063
2023-03-29T05:55:18.876Z,30.060
2023-03-29T06:00:18.927Z,30.059
2023-03-29T06:05:15.911Z,30.058
2023-03-29T06:10:15.774Z,30.058
2023-03-29T06:15:15.966Z,30.057
2023-03-29T06:20:16.017Z,30.055
2023-03-29T06:25:18.950Z,30.054
2023-03-29T06:30:18.986Z,30.048
2023-03-29T06:35:18.930Z,30.045
2023-03-29T06:40:15.959Z,30.045
2023-03-29T06:45:16.017Z,30.047
2023-03-29T06:50:15.778Z,30.042
2023-03-29T06:55:15.982Z,30.039
2023-03-29T07:00:18.913Z,30.039
2023-03-29T07:05:16.016Z,30.040
2023-03-29T07:10:15.972Z,30.042
2023-03-29T07:15:18.982Z,30.045
2023-03-29T07:20:18.991Z,30.046
2023-03-29T07:25:15.954Z,30.052
2023-03-29T07:30:15.977Z,30.057
2023-03-29T07:35:16.071Z,30.063
2023-03-29T07:40:18.940Z,30.069
2023-03-29T07:45:18.973Z,30.069
2023-03-29T07:50:16.044Z,30.069
2023-03-29T07:55:18.966Z,30.069
2023-03-29T08:00:19.102Z,30.070
2023-03-29T08:05:26.043Z,30.068
2023-03-29T08:10:15.974Z,30.067
2023-03-29T08:15:18.995Z,30.067
2023-03-29T08:20:16.043Z,30.067
2023-03-29T08:25:19.041Z,30.067
2023-03-29T08:30:16.055Z,30.067
2023-03-29T08:35:19.012Z,30.066
2023-03-29T08:40:19.064Z,30.064
2023-03-29T08:45:18.982Z,30.066
2023-03-29T08:50:19.216Z,30.069
2023-03-29T08:55:19.010Z,30.069
2023-03-29T09:00:16.070Z,30.072
2023-03-29T09:05:18.974Z,30.075
2023-03-29T09:10:16.027Z,30.074
2023-03-29T09:15:19.003Z,30.075
2023-03-29T09:20:19.081Z,30.076
2023-03-29T09:25:16.092Z,30.078
2023-03-29T09:30:16.012Z,30.079
2023-03-29T09:35:18.978Z,30.081
2023-03-29T09:40:16.045Z,30.083
2023-03-29T09:45:16.076Z,30.084
2023-03-29T09:50:30.252Z,30.085
2023-03-29T09:55:19.085Z,30.086
2023-03-29T10:00:16.110Z,30.089
2023-03-29T10:05:19.074Z,30.092
2023-03-29T10:10:19.029Z,30.096
2023-03-29T10:15:29.348Z,30.095
2023-03-29T10:20:15.914Z,30.096
2023-03-29T10:25:16.087Z,30.099
2023-03-29T10:30:19.040Z,30.100
2023-03-29T10:35:19.033Z,30.103
2023-03-29T10:40:19.067Z,30.105
2023-03-29T10:45:19.087Z,30.106
2023-03-29T10:50:19.062Z,30.109
2023-03-29T10:55:19.069Z,30.111
2023-03-29T11:00:19.103Z,30.112
2023-03-29T11:05:19.023Z,30.113
2023-03-29T11:10:16.183Z,30.116
2023-03-29T11:15:19.117Z,30.114
2023-03-29T11:20:19.143Z,30.114
2023-03-29T11:25:16.116Z,30.115
2023-03-29T11:30:19.189Z,30.117
2023-03-29T11:35:19.035Z,30.122
2023-03-29T11:40:19.049Z,30.124
2023-03-29T11:45:16.188Z,30.125
2023-03-29T11:50:19.151Z,30.125
2023-03-29T11:55:16.104Z,30.127
2023-03-29T12:00:16.083Z,30.125
2023-03-29T12:05:19.133Z,30.128
2023-03-29T12:10:19.102Z,30.128
2023-03-29T12:15:19.121Z,30.128
2023-03-29T12:20:16.134Z,30.126
2023-03-29T12:25:18.426Z,30.123
2023-03-29T12:30:19.144Z,30.123
2023-03-29T12:35:16.138Z,30.123
2023-03-29T12:40:19.088Z,30.123
2023-03-29T12:45:19.174Z,30.122
2023-03-29T12:50:19.126Z,30.123
2023-03-29T12:55:19.142Z,30.123
2023-03-29T13:00:19.113Z,30.123
2023-03-29T13:05:19.155Z,30.126
2023-03-29T13:10:19.161Z,30.124
2023-03-29T13:15:16.152Z,30.125
2023-03-29T13:20:19.161Z,30.127
2023-03-29T13:25:19.192Z,30.127
2023-03-29T13:30:16.133Z,30.122
2023-03-29T13:35:16.232Z,30.122
2023-03-29T13:40:19.141Z,30.124
2023-03-29T13:45:19.127Z,30.123
2023-03-29T13:50:16.156Z,30.124
2023-03-29T13:55:19.160Z,30.125
2023-03-29T14:00:19.965Z,30.125
2023-03-29T14:05:19.110Z,30.125
2023-03-29T14:10:19.211Z,30.124
2023-03-29T14:15:19.145Z,30.127
2023-03-29T14:20:16.211Z,30.125
2023-03-29T14:25:19.231Z,30.123
2023-03-29T14:30:19.125Z,30.120
2023-03-29T14:35:16.168Z,30.122
2023-03-29T14:40:16.281Z,30.124
2023-03-29T14:45:19.185Z,30.122
2023-03-29T14:50:16.030Z,30.126
2023-03-29T14:55:16.218Z,30.122
2023-03-29T15:00:16.262Z,30.120
2023-03-29T15:05:16.309Z,30.118
2023-03-29T15:10:16.305Z,30.115
2023-03-29T15:15:19.223Z,30.113
2023-03-29T15:20:16.221Z,30.112
2023-03-29T15:25:19.179Z,30.108
2023-03-29T15:30:19.200Z,30.104
2023-03-29T15:35:19.165Z,30.106
2023-03-29T15:40:16.411Z,30.105
2023-03-29T15:45:19.281Z,30.101
2023-03-29T15:50:19.195Z,30.098
2023-03-29T15:55:19.166Z,30.097
2023-03-29T16:00:16.275Z,30.095
2023-03-29T16:05:19.290Z,30.092
2023-03-29T16:10:19.254Z,30.091
2023-03-29T16:15:19.158Z,30.091
2023-03-29T16:20:19.246Z,30.086
2023-03-29T16:25:16.234Z,30.083
2023-03-29T16:30:16.206Z,30.081
2023-03-29T16:35:16.230Z,30.082
2023-03-29T16:40:16.305Z,30.080
2023-03-29T16:45:16.233Z,30.076
2023-03-29T16:50:19.261Z,30.073
2023-03-29T16:55:16.246Z,30.069
2023-03-29T17:00:16.267Z,30.069
2023-03-29T17:05:19.241Z,30.066
2023-03-29T17:10:19.438Z,30.063
2023-03-29T17:15:19.202Z,30.058
2023-03-29T17:20:19.299Z,30.054
2023-03-29T17:25:19.307Z,30.052
2023-03-29T17:30:19.226Z,30.047
2023-03-29T17:35:16.338Z,30.044
2023-03-29T17:40:16.267Z,30.041
2023-03-29T17:45:19.257Z,30.037
2023-03-29T17:50:16.277Z,30.035
2023-03-29T17:55:19.278Z,30.029
2023-03-29T18:00:16.336Z,30.028
2023-03-29T18:05:16.224Z,30.028
2023-03-29T18:10:19.270Z,30.025
2023-03-29T18:15:19.215Z,30.022
2023-03-29T18:20:16.282Z,30.021
2023-03-29T18:25:19.272Z,30.019
2023-03-29T18:30:19.277Z,30.018
2023-03-29T18:35:19.268Z,30.019
2023-03-29T18:40:19.303Z,30.016
2023-03-29T18:45:19.383Z,30.014
2023-03-29T18:50:16.351Z,30.012
2023-03-29T18:55:16.291Z,30.011
2023-03-29T19:00:16.406Z,30.010
2023-03-29T19:05:16.339Z,30.009
2023-03-29T19:10:16.312Z,30.006
2023-03-29T19:15:16.335Z,30.002
2023-03-29T19:20:16.332Z,30.000
2023-03-29T19:25:16.356Z,29.999
2023-03-29T19:30:19.342Z,29.995
2023-03-29T19:35:16.372Z,29.990
2023-03-29T19:40:16.336Z,29.987
2023-03-29T19:45:16.341Z,29.985
2023-03-29T19:50:16.342Z,29.983
2023-03-29T19:55:16.346Z,29.982
2023-03-29T20:00:16.303Z,29.981
2023-03-29T20:05:16.185Z,29.981
2023-03-29T20:10:19.378Z,29.979
2023-03-29T20:15:19.312Z,29.976
2023-03-29T20:20:16.360Z,29.974
2023-03-29T20:25:16.401Z,29.970
2023-03-29T20:30:16.354Z,29.968
2023-03-29T20:35:16.383Z,29.968
2023-03-29T20:40:16.388Z,29.965
2023-03-29T20:45:19.796Z,29.964
2023-03-29T20:50:16.367Z,29.965
2023-03-29T20:55:19.370Z,29.962
2023-03-29T21:00:19.397Z,29.961
2023-03-29T21:05:19.317Z,29.959
2023-03-29T21:10:16.372Z,29.961
2023-03-29T21:15:16.455Z,29.960
2023-03-29T21:20:16.403Z,29.958
2023-03-29T21:25:16.361Z,29.956
2023-03-29T21:30:16.385Z,29.955
2023-03-29T21:35:16.544Z,29.954
2023-03-29T21:40:19.400Z,29.952
2023-03-29T21:45:19.385Z,29.952
2023-03-29T21:50:19.402Z,29.952
2023-03-29T21:55:19.408Z,29.952
2023-03-29T22:00:19.465Z,29.950
2023-03-29T22:05:16.434Z,29.949
2023-03-29T22:10:19.463Z,29.950
2023-03-29T22:15:19.356Z,29.948
2023-03-29T22:20:19.386Z,29.950
2023-03-29T22:25:19.421Z,29.951
2023-03-29T22:30:19.398Z,29.952
2023-03-29T22:35:16.397Z,29.953
2023-03-29T22:40:19.522Z,29.953
2023-03-29T22:45:19.409Z,29.951
2023-03-29T22:50:19.363Z,29.949
2023-03-29T22:55:19.438Z,29.950
2023-03-29T23:00:19.365Z,29.949
2023-03-29T23:05:19.453Z,29.948
2023-03-29T23:10:19.407Z,29.947
2023-03-29T23:15:19.388Z,29.946
2023-03-29T23:20:16.250Z,29.947
2023-03-29T23:25:19.457Z,29.949
2023-03-29T23:30:19.424Z,29.949
2023-03-29T23:35:16.490Z,29.948
2023-03-29T23:40:16.433Z,29.950
2023-03-29T23:45:16.588Z,29.949
2023-03-29T23:50:19.487Z,29.950
2023-03-29T23:55:19.399Z,29.952
